sensor_id;sensor_type;location;lat;lon;timestamp;temperature;humidity
11320;DHT22;5715;48.234;14.320;2024-03-25T00:02:08;4.80;99.90
11320;DHT22;5715;48.234;14.320;2024-03-25T00:04:54;4.80;99.90
11320;DHT22;5715;48.234;14.320;2024-03-25T00:07:41;4.90;99.90
11320;DHT22;5715;48.234;14.320;2024-03-25T00:10:28;4.80;99.90
11320;DHT22;5715;48.234;14.320;2024-03-25T00:13:15;4.80;99.90
11320;DHT22;5715;48.234;14.320;2024-03-25T00:16:01;4.80;99.90
11320;DHT22;5715;48.234;14.320;2024-03-25T00:18:48;4.90;99.90
11320;DHT22;5715;48.234;14.320;2024-03-25T00:21:34;4.80;99.90
11320;DHT22;5715;48.234;14.320;2024-03-25T00:24:21;4.80;99.90
11320;DHT22;5715;48.234;14.320;2024-03-25T00:29:36;4.80;99.90
11320;DHT22;5715;48.234;14.320;2024-03-25T00:32:23;4.80;99.90
11320;DHT22;5715;48.234;14.320;2024-03-25T00:35:09;4.80;99.90
11320;DHT22;5715;48.234;14.320;2024-03-25T00:37:56;4.80;99.90
11320;DHT22;5715;48.234;14.320;2024-03-25T00:40:42;4.80;99.90
11320;DHT22;5715;48.234;14.320;2024-03-25T00:43:29;4.80;99.90
11320;DHT22;5715;48.234;14.320;2024-03-25T00:46:16;4.90;99.90
11320;DHT22;5715;48.234;14.320;2024-03-25T00:49:02;4.90;99.90
11320;DHT22;5715;48.234;14.320;2024-03-25T00:51:49;4.90;99.90
11320;DHT22;5715;48.234;14.320;2024-03-25T00:54:36;4.90;99.90
11320;DHT22;5715;48.234;14.320;2024-03-25T00:57:22;5.00;99.90
11320;DHT22;5715;48.234;14.320;2024-03-25T01:00:09;5.00;99.90
11320;DHT22;5715;48.234;14.320;2024-03-25T01:02:56;5.10;99.90
11320;DHT22;5715;48.234;14.320;2024-03-25T01:05:43;5.20;99.90
11320;DHT22;5715;48.234;14.320;2024-03-25T01:08:30;5.20;99.90
11320;DHT22;5715;48.234;14.320;2024-03-25T01:11:17;5.20;99.90
11320;DHT22;5715;48.234;14.320;2024-03-25T01:14:04;5.20;99.90
11320;DHT22;5715;48.234;14.320;2024-03-25T01:16:50;5.20;99.90
11320;DHT22;5715;48.234;14.320;2024-03-25T01:19:37;5.20;99.90
11320;DHT22;5715;48.234;14.320;2024-03-25T01:22:24;5.20;99.90
11320;DHT22;5715;48.234;14.320;2024-03-25T01:25:10;5.20;99.90
11320;DHT22;5715;48.234;14.320;2024-03-25T01:27:57;5.10;99.90
11320;DHT22;5715;48.234;14.320;2024-03-25T01:30:43;5.10;99.90
11320;DHT22;5715;48.234;14.320;2024-03-25T01:33:30;5.20;99.90
11320;DHT22;5715;48.234;14.320;2024-03-25T01:36:17;5.10;99.90
11320;DHT22;5715;48.234;14.320;2024-03-25T01:39:04;5.10;99.90
11320;DHT22;5715;48.234;14.320;2024-03-25T01:41:51;5.10;99.90
11320;DHT22;5715;48.234;14.320;2024-03-25T01:44:37;5.10;99.90
11320;DHT22;5715;48.234;14.320;2024-03-25T01:47:24;5.10;99.90
11320;DHT22;5715;48.234;14.320;2024-03-25T01:50:11;5.10;99.90
11320;DHT22;5715;48.234;14.320;2024-03-25T01:52:59;5.10;99.90
11320;DHT22;5715;48.234;14.320;2024-03-25T01:55:46;5.00;99.90
11320;DHT22;5715;48.234;14.320;2024-03-25T01:58:34;5.10;99.90
11320;DHT22;5715;48.234;14.320;2024-03-25T02:01:22;5.00;99.90
11320;DHT22;5715;48.234;14.320;2024-03-25T02:04:09;5.00;99.90
11320;DHT22;5715;48.234;14.320;2024-03-25T02:06:56;5.00;99.90
11320;DHT22;5715;48.234;14.320;2024-03-25T02:09:44;5.00;99.90
11320;DHT22;5715;48.234;14.320;2024-03-25T02:12:32;4.90;99.90
11320;DHT22;5715;48.234;14.320;2024-03-25T02:15:19;4.90;99.90
11320;DHT22;5715;48.234;14.320;2024-03-25T02:18:06;4.90;99.90
11320;DHT22;5715;48.234;14.320;2024-03-25T02:20:53;4.90;99.90
11320;DHT22;5715;48.234;14.320;2024-03-25T02:23:42;4.90;99.90
11320;DHT22;5715;48.234;14.320;2024-03-25T02:26:31;4.90;99.90
11320;DHT22;5715;48.234;14.320;2024-03-25T02:29:18;4.90;99.90
11320;DHT22;5715;48.234;14.320;2024-03-25T02:32:05;4.90;99.90
11320;DHT22;5715;48.234;14.320;2024-03-25T02:34:52;4.90;99.90
11320;DHT22;5715;48.234;14.320;2024-03-25T02:37:40;4.80;99.90
11320;DHT22;5715;48.234;14.320;2024-03-25T02:40:30;4.80;99.90
11320;DHT22;5715;48.234;14.320;2024-03-25T02:43:18;4.90;99.90
11320;DHT22;5715;48.234;14.320;2024-03-25T02:46:07;4.90;99.90
11320;DHT22;5715;48.234;14.320;2024-03-25T02:48:54;4.90;99.90
11320;DHT22;5715;48.234;14.320;2024-03-25T02:51:40;4.90;99.90
11320;DHT22;5715;48.234;14.320;2024-03-25T02:54:27;4.90;99.90
11320;DHT22;5715;48.234;14.320;2024-03-25T02:57:14;5.00;99.90
11320;DHT22;5715;48.234;14.320;2024-03-25T03:00:00;4.90;99.90
11320;DHT22;5715;48.234;14.320;2024-03-25T03:02:47;4.90;99.90
11320;DHT22;5715;48.234;14.320;2024-03-25T03:05:33;4.90;99.90
11320;DHT22;5715;48.234;14.320;2024-03-25T03:08:21;4.90;99.90
11320;DHT22;5715;48.234;14.320;2024-03-25T03:11:07;5.00;99.90
11320;DHT22;5715;48.234;14.320;2024-03-25T03:13:54;5.00;99.90
11320;DHT22;5715;48.234;14.320;2024-03-25T03:16:40;5.00;99.90
11320;DHT22;5715;48.234;14.320;2024-03-25T03:19:27;5.00;99.90
11320;DHT22;5715;48.234;14.320;2024-03-25T03:22:15;5.00;99.90
11320;DHT22;5715;48.234;14.320;2024-03-25T03:25:01;5.00;99.90
11320;DHT22;5715;48.234;14.320;2024-03-25T03:27:49;5.00;99.90
11320;DHT22;5715;48.234;14.320;2024-03-25T03:30:36;5.00;99.90
11320;DHT22;5715;48.234;14.320;2024-03-25T03:33:22;5.00;99.90
11320;DHT22;5715;48.234;14.320;2024-03-25T03:36:09;5.10;99.90
11320;DHT22;5715;48.234;14.320;2024-03-25T03:38:56;5.10;99.90
11320;DHT22;5715;48.234;14.320;2024-03-25T03:41:42;5.20;99.90
11320;DHT22;5715;48.234;14.320;2024-03-25T03:44:29;5.20;99.90
11320;DHT22;5715;48.234;14.320;2024-03-25T03:47:16;5.20;99.90
11320;DHT22;5715;48.234;14.320;2024-03-25T03:50:02;5.30;99.90
11320;DHT22;5715;48.234;14.320;2024-03-25T03:52:52;5.30;99.90
11320;DHT22;5715;48.234;14.320;2024-03-25T03:55:39;5.40;99.90
11320;DHT22;5715;48.234;14.320;2024-03-25T03:58:26;5.40;99.90
11320;DHT22;5715;48.234;14.320;2024-03-25T04:01:19;5.40;99.90
11320;DHT22;5715;48.234;14.320;2024-03-25T04:04:06;5.40;99.90
11320;DHT22;5715;48.234;14.320;2024-03-25T04:06:52;5.50;99.90
11320;DHT22;5715;48.234;14.320;2024-03-25T04:09:39;5.40;99.90
11320;DHT22;5715;48.234;14.320;2024-03-25T04:12:25;5.50;99.90
11320;DHT22;5715;48.234;14.320;2024-03-25T04:15:12;5.50;99.90
11320;DHT22;5715;48.234;14.320;2024-03-25T04:18:04;5.50;99.90
11320;DHT22;5715;48.234;14.320;2024-03-25T04:20:51;5.40;99.90
11320;DHT22;5715;48.234;14.320;2024-03-25T04:23:37;5.50;99.90
11320;DHT22;5715;48.234;14.320;2024-03-25T04:26:24;5.50;99.90
11320;DHT22;5715;48.234;14.320;2024-03-25T04:29:10;5.50;99.90
11320;DHT22;5715;48.234;14.320;2024-03-25T04:31:57;5.50;99.90
11320;DHT22;5715;48.234;14.320;2024-03-25T04:34:44;5.50;99.90
11320;DHT22;5715;48.234;14.320;2024-03-25T04:37:30;5.50;99.90
11320;DHT22;5715;48.234;14.320;2024-03-25T04:40:17;5.50;99.90
11320;DHT22;5715;48.234;14.320;2024-03-25T04:43:05;5.50;99.90
11320;DHT22;5715;48.234;14.320;2024-03-25T04:45:51;5.50;99.90
11320;DHT22;5715;48.234;14.320;2024-03-25T04:48:38;5.50;99.90
11320;DHT22;5715;48.234;14.320;2024-03-25T04:51:24;5.50;99.90
11320;DHT22;5715;48.234;14.320;2024-03-25T04:54:11;5.50;99.90
11320;DHT22;5715;48.234;14.320;2024-03-25T04:56:57;5.50;99.90
11320;DHT22;5715;48.234;14.320;2024-03-25T04:59:44;5.50;99.90
11320;DHT22;5715;48.234;14.320;2024-03-25T05:02:31;5.50;99.90
11320;DHT22;5715;48.234;14.320;2024-03-25T05:05:17;5.60;99.90
11320;DHT22;5715;48.234;14.320;2024-03-25T05:08:04;5.50;99.90
11320;DHT22;5715;48.234;14.320;2024-03-25T05:10:51;5.60;99.90
11320;DHT22;5715;48.234;14.320;2024-03-25T05:13:37;5.60;99.90
11320;DHT22;5715;48.234;14.320;2024-03-25T05:16:24;5.60;99.90
11320;DHT22;5715;48.234;14.320;2024-03-25T05:19:11;5.60;99.90
11320;DHT22;5715;48.234;14.320;2024-03-25T05:21:58;5.60;99.90
11320;DHT22;5715;48.234;14.320;2024-03-25T05:24:44;5.60;99.90
11320;DHT22;5715;48.234;14.320;2024-03-25T05:27:31;5.60;99.90
11320;DHT22;5715;48.234;14.320;2024-03-25T05:30:17;5.60;99.90
11320;DHT22;5715;48.234;14.320;2024-03-25T05:33:04;5.60;99.90
11320;DHT22;5715;48.234;14.320;2024-03-25T05:35:50;5.60;99.90
11320;DHT22;5715;48.234;14.320;2024-03-25T05:38:37;5.60;99.90
11320;DHT22;5715;48.234;14.320;2024-03-25T05:41:24;5.60;99.90
11320;DHT22;5715;48.234;14.320;2024-03-25T05:44:10;5.60;99.90
11320;DHT22;5715;48.234;14.320;2024-03-25T05:46:57;5.60;99.90
11320;DHT22;5715;48.234;14.320;2024-03-25T05:49:46;5.60;99.90
11320;DHT22;5715;48.234;14.320;2024-03-25T05:52:33;5.60;99.90
11320;DHT22;5715;48.234;14.320;2024-03-25T05:55:20;5.60;99.90
11320;DHT22;5715;48.234;14.320;2024-03-25T05:58:06;5.60;99.90
11320;DHT22;5715;48.234;14.320;2024-03-25T06:00:54;5.60;99.90
11320;DHT22;5715;48.234;14.320;2024-03-25T06:03:41;5.60;99.90
11320;DHT22;5715;48.234;14.320;2024-03-25T06:06:27;5.60;99.90
11320;DHT22;5715;48.234;14.320;2024-03-25T06:09:14;5.60;99.90
11320;DHT22;5715;48.234;14.320;2024-03-25T06:12:00;5.60;99.90
11320;DHT22;5715;48.234;14.320;2024-03-25T06:14:47;5.70;99.90
11320;DHT22;5715;48.234;14.320;2024-03-25T06:17:33;5.70;99.90
11320;DHT22;5715;48.234;14.320;2024-03-25T06:20:20;5.70;99.90
11320;DHT22;5715;48.234;14.320;2024-03-25T06:23:07;5.80;99.90
11320;DHT22;5715;48.234;14.320;2024-03-25T06:25:54;5.80;99.90
11320;DHT22;5715;48.234;14.320;2024-03-25T06:28:42;5.80;99.90
11320;DHT22;5715;48.234;14.320;2024-03-25T06:31:29;5.90;99.90
11320;DHT22;5715;48.234;14.320;2024-03-25T06:34:34;5.90;99.90
11320;DHT22;5715;48.234;14.320;2024-03-25T06:37:20;6.00;99.90
11320;DHT22;5715;48.234;14.320;2024-03-25T06:40:07;6.10;99.90
11320;DHT22;5715;48.234;14.320;2024-03-25T06:42:54;6.10;99.90
11320;DHT22;5715;48.234;14.320;2024-03-25T06:45:41;6.20;99.90
11320;DHT22;5715;48.234;14.320;2024-03-25T06:48:27;6.30;99.90
11320;DHT22;5715;48.234;14.320;2024-03-25T06:51:14;6.30;99.90
11320;DHT22;5715;48.234;14.320;2024-03-25T06:54:01;6.40;99.90
11320;DHT22;5715;48.234;14.320;2024-03-25T06:56:47;6.50;99.90
11320;DHT22;5715;48.234;14.320;2024-03-25T06:59:34;6.60;99.90
11320;DHT22;5715;48.234;14.320;2024-03-25T07:02:23;6.80;99.90
11320;DHT22;5715;48.234;14.320;2024-03-25T07:05:10;6.90;99.90
11320;DHT22;5715;48.234;14.320;2024-03-25T07:07:56;7.00;99.90
11320;DHT22;5715;48.234;14.320;2024-03-25T07:10:44;7.20;99.90
11320;DHT22;5715;48.234;14.320;2024-03-25T07:13:31;7.50;99.90
11320;DHT22;5715;48.234;14.320;2024-03-25T07:16:18;7.40;99.90
11320;DHT22;5715;48.234;14.320;2024-03-25T07:19:04;7.50;99.90
11320;DHT22;5715;48.234;14.320;2024-03-25T07:21:52;7.60;99.90
11320;DHT22;5715;48.234;14.320;2024-03-25T07:24:38;7.60;99.90
11320;DHT22;5715;48.234;14.320;2024-03-25T07:27:25;7.70;99.90
11320;DHT22;5715;48.234;14.320;2024-03-25T07:30:12;7.80;99.90
11320;DHT22;5715;48.234;14.320;2024-03-25T07:32:59;7.90;99.90
11320;DHT22;5715;48.234;14.320;2024-03-25T07:35:46;8.00;99.90
11320;DHT22;5715;48.234;14.320;2024-03-25T07:38:33;8.10;99.90
11320;DHT22;5715;48.234;14.320;2024-03-25T07:41:19;8.20;99.90
11320;DHT22;5715;48.234;14.320;2024-03-25T07:44:06;8.20;99.90
11320;DHT22;5715;48.234;14.320;2024-03-25T07:46:52;8.20;99.90
11320;DHT22;5715;48.234;14.320;2024-03-25T07:49:39;8.30;99.90
11320;DHT22;5715;48.234;14.320;2024-03-25T07:52:26;8.20;99.90
11320;DHT22;5715;48.234;14.320;2024-03-25T07:55:13;8.30;99.90
11320;DHT22;5715;48.234;14.320;2024-03-25T07:58:01;8.20;99.90
11320;DHT22;5715;48.234;14.320;2024-03-25T08:00:47;8.30;99.90
11320;DHT22;5715;48.234;14.320;2024-03-25T08:03:34;8.30;99.90
11320;DHT22;5715;48.234;14.320;2024-03-25T08:06:20;8.30;99.90
11320;DHT22;5715;48.234;14.320;2024-03-25T08:09:07;8.30;99.90
11320;DHT22;5715;48.234;14.320;2024-03-25T08:11:55;8.50;99.90
11320;DHT22;5715;48.234;14.320;2024-03-25T08:14:42;8.60;99.90
11320;DHT22;5715;48.234;14.320;2024-03-25T08:17:29;8.60;99.90
11320;DHT22;5715;48.234;14.320;2024-03-25T08:20:16;8.70;99.90
11320;DHT22;5715;48.234;14.320;2024-03-25T08:23:03;8.80;99.90
11320;DHT22;5715;48.234;14.320;2024-03-25T08:25:49;8.70;99.90
11320;DHT22;5715;48.234;14.320;2024-03-25T08:28:36;8.80;99.90
11320;DHT22;5715;48.234;14.320;2024-03-25T08:31:23;9.00;99.90
11320;DHT22;5715;48.234;14.320;2024-03-25T08:34:10;9.20;99.90
11320;DHT22;5715;48.234;14.320;2024-03-25T08:36:56;9.30;99.90
11320;DHT22;5715;48.234;14.320;2024-03-25T08:39:43;9.50;99.90
11320;DHT22;5715;48.234;14.320;2024-03-25T08:42:30;9.70;99.90
11320;DHT22;5715;48.234;14.320;2024-03-25T08:45:16;9.90;99.90
11320;DHT22;5715;48.234;14.320;2024-03-25T08:48:03;10.00;99.90
11320;DHT22;5715;48.234;14.320;2024-03-25T08:50:50;10.10;99.90
11320;DHT22;5715;48.234;14.320;2024-03-25T08:53:37;10.10;99.90
11320;DHT22;5715;48.234;14.320;2024-03-25T08:56:23;10.30;99.90
11320;DHT22;5715;48.234;14.320;2024-03-25T08:59:10;10.60;99.90
11320;DHT22;5715;48.234;14.320;2024-03-25T09:01:57;10.70;99.90
11320;DHT22;5715;48.234;14.320;2024-03-25T09:04:43;10.50;99.90
11320;DHT22;5715;48.234;14.320;2024-03-25T09:07:30;10.40;99.90
11320;DHT22;5715;48.234;14.320;2024-03-25T09:10:21;10.30;99.90
11320;DHT22;5715;48.234;14.320;2024-03-25T09:13:26;10.10;99.90
11320;DHT22;5715;48.234;14.320;2024-03-25T09:16:13;9.90;99.90
11320;DHT22;5715;48.234;14.320;2024-03-25T09:18:59;9.80;99.90
11320;DHT22;5715;48.234;14.320;2024-03-25T09:21:46;9.70;99.90
11320;DHT22;5715;48.234;14.320;2024-03-25T09:24:33;10.10;99.90
11320;DHT22;5715;48.234;14.320;2024-03-25T09:27:19;10.50;99.90
11320;DHT22;5715;48.234;14.320;2024-03-25T09:30:06;10.70;99.90
11320;DHT22;5715;48.234;14.320;2024-03-25T09:32:56;10.90;99.90
11320;DHT22;5715;48.234;14.320;2024-03-25T09:35:43;10.90;99.90
11320;DHT22;5715;48.234;14.320;2024-03-25T09:38:30;10.90;99.90
11320;DHT22;5715;48.234;14.320;2024-03-25T09:41:16;11.10;99.90
11320;DHT22;5715;48.234;14.320;2024-03-25T09:44:03;11.50;99.90
11320;DHT22;5715;48.234;14.320;2024-03-25T09:46:52;11.70;99.90
11320;DHT22;5715;48.234;14.320;2024-03-25T09:49:40;11.70;99.90
11320;DHT22;5715;48.234;14.320;2024-03-25T09:52:28;11.90;99.90
11320;DHT22;5715;48.234;14.320;2024-03-25T09:55:15;11.90;99.90
11320;DHT22;5715;48.234;14.320;2024-03-25T09:58:04;11.80;99.90
11320;DHT22;5715;48.234;14.320;2024-03-25T10:00:51;11.80;99.90
11320;DHT22;5715;48.234;14.320;2024-03-25T10:03:38;11.70;99.90
11320;DHT22;5715;48.234;14.320;2024-03-25T10:06:25;11.50;99.90
11320;DHT22;5715;48.234;14.320;2024-03-25T10:09:11;11.10;99.90
11320;DHT22;5715;48.234;14.320;2024-03-25T10:11:59;10.80;99.90
11320;DHT22;5715;48.234;14.320;2024-03-25T10:14:45;10.50;99.90
11320;DHT22;5715;48.234;14.320;2024-03-25T10:17:32;10.40;99.90
11320;DHT22;5715;48.234;14.320;2024-03-25T10:20:20;10.30;99.90
11320;DHT22;5715;48.234;14.320;2024-03-25T10:23:06;10.20;99.90
11320;DHT22;5715;48.234;14.320;2024-03-25T10:25:57;10.20;99.90
11320;DHT22;5715;48.234;14.320;2024-03-25T10:28:44;10.10;99.90
11320;DHT22;5715;48.234;14.320;2024-03-25T10:31:31;10.10;99.90
11320;DHT22;5715;48.234;14.320;2024-03-25T10:34:18;10.40;99.90
11320;DHT22;5715;48.234;14.320;2024-03-25T10:37:08;10.50;99.90
11320;DHT22;5715;48.234;14.320;2024-03-25T10:39:58;10.50;99.90
11320;DHT22;5715;48.234;14.320;2024-03-25T10:42:47;10.50;99.90
11320;DHT22;5715;48.234;14.320;2024-03-25T10:45:37;10.70;99.90
11320;DHT22;5715;48.234;14.320;2024-03-25T10:48:31;11.00;99.90
11320;DHT22;5715;48.234;14.320;2024-03-25T10:51:25;11.10;99.90
11320;DHT22;5715;48.234;14.320;2024-03-25T10:54:13;11.60;99.90
11320;DHT22;5715;48.234;14.320;2024-03-25T10:57:03;12.20;99.90
11320;DHT22;5715;48.234;14.320;2024-03-25T10:59:51;12.40;99.90
11320;DHT22;5715;48.234;14.320;2024-03-25T11:02:38;12.40;99.90
11320;DHT22;5715;48.234;14.320;2024-03-25T11:05:26;11.90;99.90
11320;DHT22;5715;48.234;14.320;2024-03-25T11:08:14;11.60;99.90
11320;DHT22;5715;48.234;14.320;2024-03-25T11:11:05;11.40;99.90
11320;DHT22;5715;48.234;14.320;2024-03-25T11:13:51;11.00;99.90
11320;DHT22;5715;48.234;14.320;2024-03-25T11:16:38;10.70;99.90
11320;DHT22;5715;48.234;14.320;2024-03-25T11:19:29;10.50;99.90
11320;DHT22;5715;48.234;14.320;2024-03-25T11:22:16;10.30;99.90
11320;DHT22;5715;48.234;14.320;2024-03-25T11:25:12;10.10;99.90
11320;DHT22;5715;48.234;14.320;2024-03-25T11:27:59;9.90;99.90
11320;DHT22;5715;48.234;14.320;2024-03-25T11:30:46;9.80;99.90
11320;DHT22;5715;48.234;14.320;2024-03-25T11:33:39;9.90;99.90
11320;DHT22;5715;48.234;14.320;2024-03-25T11:36:26;10.10;99.90
11320;DHT22;5715;48.234;14.320;2024-03-25T11:39:16;10.30;99.90
11320;DHT22;5715;48.234;14.320;2024-03-25T11:42:04;10.60;99.90
11320;DHT22;5715;48.234;14.320;2024-03-25T11:44:51;11.10;99.90
11320;DHT22;5715;48.234;14.320;2024-03-25T11:47:38;11.70;99.90
11320;DHT22;5715;48.234;14.320;2024-03-25T11:50:24;11.90;99.90
11320;DHT22;5715;48.234;14.320;2024-03-25T11:53:12;11.90;99.90
11320;DHT22;5715;48.234;14.320;2024-03-25T11:56:00;11.80;99.90
11320;DHT22;5715;48.234;14.320;2024-03-25T11:58:46;11.70;99.90
11320;DHT22;5715;48.234;14.320;2024-03-25T12:01:33;11.60;99.90
11320;DHT22;5715;48.234;14.320;2024-03-25T12:04:20;11.80;99.90
11320;DHT22;5715;48.234;14.320;2024-03-25T12:07:14;11.90;99.90
11320;DHT22;5715;48.234;14.320;2024-03-25T12:10:01;12.20;99.90
11320;DHT22;5715;48.234;14.320;2024-03-25T12:13:08;12.20;99.90
11320;DHT22;5715;48.234;14.320;2024-03-25T12:15:54;12.30;99.90
11320;DHT22;5715;48.234;14.320;2024-03-25T12:18:41;12.60;99.90
11320;DHT22;5715;48.234;14.320;2024-03-25T12:21:28;13.00;99.90
11320;DHT22;5715;48.234;14.320;2024-03-25T12:24:17;13.50;99.90
11320;DHT22;5715;48.234;14.320;2024-03-25T12:27:04;13.90;99.90
11320;DHT22;5715;48.234;14.320;2024-03-25T12:30:05;14.30;99.90
11320;DHT22;5715;48.234;14.320;2024-03-25T12:32:54;14.10;99.90
11320;DHT22;5715;48.234;14.320;2024-03-25T12:35:44;13.90;99.90
11320;DHT22;5715;48.234;14.320;2024-03-25T12:38:32;13.90;99.90
11320;DHT22;5715;48.234;14.320;2024-03-25T12:41:22;13.90;99.90
11320;DHT22;5715;48.234;14.320;2024-03-25T12:44:12;14.10;99.90
11320;DHT22;5715;48.234;14.320;2024-03-25T12:46:59;13.90;99.90
11320;DHT22;5715;48.234;14.320;2024-03-25T12:49:45;13.70;99.90
11320;DHT22;5715;48.234;14.320;2024-03-25T12:52:32;13.10;99.90
11320;DHT22;5715;48.234;14.320;2024-03-25T12:55:18;12.90;99.90
11320;DHT22;5715;48.234;14.320;2024-03-25T12:58:05;12.80;99.90
11320;DHT22;5715;48.234;14.320;2024-03-25T13:00:53;12.50;99.90
11320;DHT22;5715;48.234;14.320;2024-03-25T13:03:45;12.20;99.90
11320;DHT22;5715;48.234;14.320;2024-03-25T13:06:31;11.70;99.90
11320;DHT22;5715;48.234;14.320;2024-03-25T13:09:18;11.90;99.90
11320;DHT22;5715;48.234;14.320;2024-03-25T13:12:08;12.10;99.90
11320;DHT22;5715;48.234;14.320;2024-03-25T13:14:55;12.20;99.90
11320;DHT22;5715;48.234;14.320;2024-03-25T13:17:42;12.20;99.90
11320;DHT22;5715;48.234;14.320;2024-03-25T13:20:28;12.30;99.90
11320;DHT22;5715;48.234;14.320;2024-03-25T13:23:15;12.30;99.90
11320;DHT22;5715;48.234;14.320;2024-03-25T13:26:02;12.40;99.90
11320;DHT22;5715;48.234;14.320;2024-03-25T13:28:49;12.60;99.90
11320;DHT22;5715;48.234;14.320;2024-03-25T13:31:36;12.80;99.90
11320;DHT22;5715;48.234;14.320;2024-03-25T13:34:23;12.90;99.90
11320;DHT22;5715;48.234;14.320;2024-03-25T13:37:11;13.00;99.90
11320;DHT22;5715;48.234;14.320;2024-03-25T13:39:58;13.40;99.90
11320;DHT22;5715;48.234;14.320;2024-03-25T13:42:44;13.40;99.90
11320;DHT22;5715;48.234;14.320;2024-03-25T13:45:31;13.40;99.90
11320;DHT22;5715;48.234;14.320;2024-03-25T13:48:17;13.40;99.90
11320;DHT22;5715;48.234;14.320;2024-03-25T13:51:05;13.60;99.90
11320;DHT22;5715;48.234;14.320;2024-03-25T13:53:51;13.70;99.90
11320;DHT22;5715;48.234;14.320;2024-03-25T13:56:38;13.60;99.90
11320;DHT22;5715;48.234;14.320;2024-03-25T13:59:25;13.30;99.90
11320;DHT22;5715;48.234;14.320;2024-03-25T14:02:12;13.20;99.90
11320;DHT22;5715;48.234;14.320;2024-03-25T14:04:58;13.20;99.90
11320;DHT22;5715;48.234;14.320;2024-03-25T14:07:45;13.30;99.90
11320;DHT22;5715;48.234;14.320;2024-03-25T14:10:31;13.10;99.90
11320;DHT22;5715;48.234;14.320;2024-03-25T14:13:18;13.00;99.90
11320;DHT22;5715;48.234;14.320;2024-03-25T14:16:05;13.10;99.90
11320;DHT22;5715;48.234;14.320;2024-03-25T14:18:52;13.00;99.90
11320;DHT22;5715;48.234;14.320;2024-03-25T14:21:38;13.10;99.90
11320;DHT22;5715;48.234;14.320;2024-03-25T14:24:25;12.80;99.90
11320;DHT22;5715;48.234;14.320;2024-03-25T14:27:12;12.20;99.90
11320;DHT22;5715;48.234;14.320;2024-03-25T14:29:59;12.30;99.90
11320;DHT22;5715;48.234;14.320;2024-03-25T14:32:46;12.10;99.90
11320;DHT22;5715;48.234;14.320;2024-03-25T14:35:32;12.20;99.90
11320;DHT22;5715;48.234;14.320;2024-03-25T14:38:19;12.10;99.90
11320;DHT22;5715;48.234;14.320;2024-03-25T14:41:05;12.00;99.90
11320;DHT22;5715;48.234;14.320;2024-03-25T14:43:52;12.10;99.90
11320;DHT22;5715;48.234;14.320;2024-03-25T14:46:38;12.00;99.90
11320;DHT22;5715;48.234;14.320;2024-03-25T14:49:25;12.10;99.90
11320;DHT22;5715;48.234;14.320;2024-03-25T14:52:12;12.10;99.90
11320;DHT22;5715;48.234;14.320;2024-03-25T14:54:59;12.20;99.90
11320;DHT22;5715;48.234;14.320;2024-03-25T14:57:45;12.20;99.90
11320;DHT22;5715;48.234;14.320;2024-03-25T15:00:32;12.40;99.90
11320;DHT22;5715;48.234;14.320;2024-03-25T15:03:18;12.60;99.90
11320;DHT22;5715;48.234;14.320;2024-03-25T15:06:05;12.60;99.90
11320;DHT22;5715;48.234;14.320;2024-03-25T15:08:52;12.50;99.90
11320;DHT22;5715;48.234;14.320;2024-03-25T15:11:38;12.60;99.90
11320;DHT22;5715;48.234;14.320;2024-03-25T15:14:28;12.70;99.90
11320;DHT22;5715;48.234;14.320;2024-03-25T15:17:16;12.80;99.90
11320;DHT22;5715;48.234;14.320;2024-03-25T15:20:04;12.90;99.90
11320;DHT22;5715;48.234;14.320;2024-03-25T15:22:54;12.80;99.90
11320;DHT22;5715;48.234;14.320;2024-03-25T15:25:40;12.70;99.90
11320;DHT22;5715;48.234;14.320;2024-03-25T15:28:27;12.60;99.90
11320;DHT22;5715;48.234;14.320;2024-03-25T15:31:14;12.40;99.90
11320;DHT22;5715;48.234;14.320;2024-03-25T15:34:01;12.50;99.90
11320;DHT22;5715;48.234;14.320;2024-03-25T15:36:49;12.30;99.90
11320;DHT22;5715;48.234;14.320;2024-03-25T15:39:35;12.30;99.90
11320;DHT22;5715;48.234;14.320;2024-03-25T15:42:24;12.30;99.90
11320;DHT22;5715;48.234;14.320;2024-03-25T15:45:11;12.40;99.90
11320;DHT22;5715;48.234;14.320;2024-03-25T15:47:57;12.30;99.90
11320;DHT22;5715;48.234;14.320;2024-03-25T15:50:44;12.20;99.90
11320;DHT22;5715;48.234;14.320;2024-03-25T15:53:30;11.90;99.90
11320;DHT22;5715;48.234;14.320;2024-03-25T15:56:17;11.80;99.90
11320;DHT22;5715;48.234;14.320;2024-03-25T15:59:05;11.80;99.90
11320;DHT22;5715;48.234;14.320;2024-03-25T16:01:51;11.80;99.90
11320;DHT22;5715;48.234;14.320;2024-03-25T16:04:38;11.80;99.90
11320;DHT22;5715;48.234;14.320;2024-03-25T16:07:24;11.70;99.90
11320;DHT22;5715;48.234;14.320;2024-03-25T16:10:11;11.70;99.90
11320;DHT22;5715;48.234;14.320;2024-03-25T16:12:59;11.60;99.90
11320;DHT22;5715;48.234;14.320;2024-03-25T16:16:09;11.50;99.90
11320;DHT22;5715;48.234;14.320;2024-03-25T16:18:56;11.40;99.90
11320;DHT22;5715;48.234;14.320;2024-03-25T16:21:43;11.20;99.90
11320;DHT22;5715;48.234;14.320;2024-03-25T16:24:29;11.10;99.90
11320;DHT22;5715;48.234;14.320;2024-03-25T16:27:16;11.00;99.90
11320;DHT22;5715;48.234;14.320;2024-03-25T16:30:04;10.90;99.90
11320;DHT22;5715;48.234;14.320;2024-03-25T16:32:51;10.90;99.90
11320;DHT22;5715;48.234;14.320;2024-03-25T16:35:38;10.90;99.90
11320;DHT22;5715;48.234;14.320;2024-03-25T16:38:24;10.80;99.90
11320;DHT22;5715;48.234;14.320;2024-03-25T16:41:11;10.70;99.90
11320;DHT22;5715;48.234;14.320;2024-03-25T16:43:58;10.60;99.90
11320;DHT22;5715;48.234;14.320;2024-03-25T16:46:44;10.60;99.90
11320;DHT22;5715;48.234;14.320;2024-03-25T16:49:31;10.50;99.90
11320;DHT22;5715;48.234;14.320;2024-03-25T16:52:17;10.50;99.90
11320;DHT22;5715;48.234;14.320;2024-03-25T16:55:05;10.40;99.90
11320;DHT22;5715;48.234;14.320;2024-03-25T16:57:52;10.30;99.90
11320;DHT22;5715;48.234;14.320;2024-03-25T17:00:39;10.20;99.90
11320;DHT22;5715;48.234;14.320;2024-03-25T17:03:26;10.10;99.90
11320;DHT22;5715;48.234;14.320;2024-03-25T17:06:16;10.00;99.90
11320;DHT22;5715;48.234;14.320;2024-03-25T17:09:02;9.90;99.90
11320;DHT22;5715;48.234;14.320;2024-03-25T17:11:49;9.70;99.90
11320;DHT22;5715;48.234;14.320;2024-03-25T17:14:38;9.80;99.90
11320;DHT22;5715;48.234;14.320;2024-03-25T17:17:25;9.70;99.90
11320;DHT22;5715;48.234;14.320;2024-03-25T17:20:11;9.60;99.90
11320;DHT22;5715;48.234;14.320;2024-03-25T17:22:58;9.50;99.90
11320;DHT22;5715;48.234;14.320;2024-03-25T17:25:44;9.50;99.90
11320;DHT22;5715;48.234;14.320;2024-03-25T17:28:31;9.30;99.90
11320;DHT22;5715;48.234;14.320;2024-03-25T17:31:19;9.20;99.90
11320;DHT22;5715;48.234;14.320;2024-03-25T17:34:05;9.10;99.90
11320;DHT22;5715;48.234;14.320;2024-03-25T17:36:52;9.00;99.90
11320;DHT22;5715;48.234;14.320;2024-03-25T17:39:39;8.90;99.90
11320;DHT22;5715;48.234;14.320;2024-03-25T17:42:27;8.80;99.90
11320;DHT22;5715;48.234;14.320;2024-03-25T17:45:14;8.70;99.90
11320;DHT22;5715;48.234;14.320;2024-03-25T17:48:01;8.70;99.90
11320;DHT22;5715;48.234;14.320;2024-03-25T17:50:55;8.60;99.90